Tulsa International Airport Airport (TUL)

 

Airport Diagram
Current Weather/Forecast (VFR Conditions)
METAR KTUL 272353Z 00000KT 10SM -RA BKN041 OVC110 21/18 A2983 RMK AO2 RAE16B48 SLP095 P0000 60001 T02110178 10228 20206 58004
TAF KTUL 272330Z 2800/2824 33004KT P6SM VCSH FEW028 BKN045 OVC110 TEMPO 2800/2804 2SM TSRA BKN030CB FM280400 32002KT P6SM VCSH OVC100 FM280900 32003KT 4SM BR VCSH OVC050 FM281200 32004KT 5SM BR VCSH OVC015 FM281500 31007KT P6SM VCSH OVC007 PROB30 2815/2818 2SM -TSRA BKN030CB FM281800 34008KT P6SM VCSH OVC015 PROB30 2818/2821 2SM -TSRA BKN030CB FM282100 34012KT P6SM VCSH OVC050 PROB30 2821/2824 2SM -TSRA BKN030CB

All Charts
General
Chart Name Download
AIRPORT DIAGRAM
TAKEOFF MINIMUMS
ALTERNATE MINIMUMS
RADAR MINIMUMS

Departures
Chart Name Download
TULSA EIGHT

Arrivals
Chart Name Download
VINTA TWO

Approaches
Chart Name Download
ILS OR LOC RWY 18L
ILS OR LOC RWY 18R
ILS OR LOC RWY 36R
ILS RWY 36R (SA CAT I)
ILS RWY 36R (CAT II)
RNAV (GPS) RWY 08
RNAV (GPS) RWY 18L
RNAV (GPS) RWY 18R
RNAV (GPS) RWY 26
RNAV (GPS) RWY 36L
RNAV (GPS) RWY 36R
VOR/DME RWY 08
HI-VOR/DME OR TACAN RWY 26
VOR OR TACAN RWY 26


Inbound Traffic (Arrivals)

No inbound traffic.


Outbound Traffic (Departures)

No outbound traffic.